createdAt,value
2022-08-27T00:00:00.683Z,17.30
2022-08-27T00:02:04.161Z,15.37
2022-08-27T00:04:07.400Z,17.00
2022-08-27T00:06:14.038Z,16.93
2022-08-27T00:08:17.166Z,22.83
2022-08-27T00:10:22.365Z,19.50
2022-08-27T00:12:25.442Z,22.77
2022-08-27T00:14:29.621Z,19.40
2022-08-27T00:16:32.774Z,18.40
2022-08-27T00:18:37.013Z,19.57
2022-08-27T00:20:40.060Z,19.43
2022-08-27T00:22:44.488Z,20.80
2022-08-27T00:24:49.000Z,18.77
2022-08-27T00:26:53.777Z,20.40
2022-08-27T00:28:56.782Z,18.90
2022-08-27T00:30:59.968Z,21.73
2022-08-27T00:33:05.223Z,23.30
2022-08-27T00:35:09.526Z,25.20
2022-08-27T00:37:12.825Z,22.13
2022-08-27T00:39:17.268Z,20.20
2022-08-27T00:41:21.149Z,17.03
2022-08-27T00:43:24.551Z,18.90
2022-08-27T00:45:27.549Z,20.90
2022-08-27T00:47:33.229Z,23.47
2022-08-27T00:49:41.538Z,17.90
2022-08-27T00:51:45.016Z,19.93
2022-08-27T00:53:53.148Z,22.60
2022-08-27T00:56:00.035Z,24.80
2022-08-27T00:58:07.205Z,21.43
2022-08-27T01:00:14.838Z,24.10
2022-08-27T01:02:20.761Z,26.83
2022-08-27T01:04:24.007Z,25.10
2022-08-27T01:06:37.503Z,25.13
2022-08-27T01:08:43.765Z,24.70
2022-08-27T01:10:47.887Z,23.43
2022-08-27T01:12:54.155Z,24.83
2022-08-27T01:14:57.374Z,25.33
2022-08-27T01:17:01.603Z,24.53
2022-08-27T01:19:05.783Z,23.90
2022-08-27T01:21:12.765Z,23.63
2022-08-27T01:23:20.130Z,23.70
2022-08-27T01:25:26.070Z,21.70
2022-08-27T01:27:31.581Z,24.83
2022-08-27T01:29:34.690Z,22.40
2022-08-27T01:31:38.277Z,22.77
2022-08-27T01:33:42.102Z,26.20
2022-08-27T01:35:48.430Z,24.23
2022-08-27T01:37:53.608Z,25.63
2022-08-27T01:39:59.925Z,30.60
2022-08-27T01:42:05.698Z,29.07
2022-08-27T01:44:08.715Z,28.27
2022-08-27T01:46:11.763Z,27.87
2022-08-27T01:48:15.012Z,29.17
2022-08-27T01:50:21.147Z,28.30
2022-08-27T01:52:26.335Z,27.17
2022-08-27T01:54:29.494Z,30.53
2022-08-27T01:56:32.521Z,33.43
2022-08-27T01:58:37.104Z,32.80
2022-08-27T02:00:42.520Z,35.97
2022-08-27T02:02:45.669Z,30.10
2022-08-27T02:04:50.387Z,32.23
2022-08-27T02:06:53.384Z,31.40
2022-08-27T02:08:56.355Z,33.30
2022-08-27T02:10:59.487Z,38.63
2022-08-27T02:13:02.894Z,36.47
2022-08-27T02:15:08.703Z,36.67
2022-08-27T02:17:12.369Z,36.77
2022-08-27T02:19:16.451Z,38.20
2022-08-27T02:21:19.569Z,37.33
2022-08-27T02:23:22.560Z,40.70
2022-08-27T02:25:27.671Z,34.93
2022-08-27T02:27:34.043Z,38.33
2022-08-27T02:29:37.072Z,32.83
2022-08-27T02:31:42.168Z,35.83
2022-08-27T02:33:45.308Z,37.33
2022-08-27T02:35:48.416Z,35.43
2022-08-27T02:37:51.669Z,35.50
2022-08-27T02:39:54.850Z,35.77
2022-08-27T02:41:57.830Z,35.10
2022-08-27T02:44:01.396Z,39.13
2022-08-27T02:46:05.308Z,38.93
2022-08-27T02:48:10.603Z,35.73
2022-08-27T02:50:14.508Z,37.67
2022-08-27T02:52:17.594Z,37.20
2022-08-27T02:54:28.317Z,36.07
2022-08-27T02:56:31.868Z,39.43
2022-08-27T02:58:34.981Z,41.60
2022-08-27T03:00:38.038Z,44.07
2022-08-27T03:02:41.481Z,44.70
2022-08-27T03:04:46.360Z,37.43
2022-08-27T03:06:49.711Z,41.17
2022-08-27T03:08:53.593Z,38.70
2022-08-27T03:10:57.736Z,44.30
2022-08-27T03:13:00.730Z,41.27
2022-08-27T03:15:04.312Z,40.33
2022-08-27T03:17:21.255Z,43.17
2022-08-27T03:19:24.560Z,41.37
2022-08-27T03:21:29.164Z,41.17
2022-08-27T03:23:33.920Z,44.30
2022-08-27T03:25:37.183Z,44.03
2022-08-27T03:27:40.418Z,44.30
2022-08-27T03:29:43.369Z,48.63
2022-08-27T03:31:46.410Z,42.87
2022-08-27T03:33:49.465Z,44.60
2022-08-27T03:35:52.448Z,48.87
2022-08-27T03:37:56.761Z,48.10
2022-08-27T03:39:59.782Z,43.53
2022-08-27T03:42:02.817Z,41.70
2022-08-27T03:44:05.804Z,44.80
2022-08-27T03:46:09.459Z,43.77
2022-08-27T03:48:12.982Z,49.37
2022-08-27T03:50:15.973Z,46.60
2022-08-27T03:52:19.230Z,45.27
2022-08-27T03:54:24.975Z,46.13
2022-08-27T03:56:28.086Z,47.10
2022-08-27T03:58:31.115Z,47.57
2022-08-27T04:00:34.160Z,46.33
2022-08-27T04:02:37.996Z,45.97
2022-08-27T04:04:40.999Z,42.90
2022-08-27T04:06:44.094Z,48.27
2022-08-27T04:08:47.220Z,43.37
2022-08-27T04:10:52.101Z,46.00
2022-08-27T04:12:55.233Z,44.20
2022-08-27T04:14:58.187Z,44.57
2022-08-27T04:17:02.251Z,44.47
2022-08-27T04:19:05.243Z,44.40
2022-08-27T04:21:09.383Z,48.73
2022-08-27T04:23:12.557Z,44.30
2022-08-27T04:25:15.639Z,45.47
2022-08-27T04:27:20.592Z,44.37
2022-08-27T04:29:23.753Z,48.17
2022-08-27T04:31:27.364Z,43.60
2022-08-27T04:33:31.711Z,43.90
2022-08-27T04:35:34.755Z,46.60
2022-08-27T04:37:37.731Z,47.13
2022-08-27T04:39:40.718Z,41.53
2022-08-27T04:41:43.902Z,45.70
2022-08-27T04:43:49.165Z,42.73
2022-08-27T04:45:52.123Z,44.43
2022-08-27T04:47:55.066Z,46.63
2022-08-27T04:49:58.225Z,41.80
2022-08-27T04:52:01.257Z,42.30
2022-08-27T04:54:05.230Z,44.77
2022-08-27T04:56:08.420Z,44.07
2022-08-27T04:58:17.738Z,42.20
2022-08-27T05:00:22.726Z,42.23
2022-08-27T05:02:25.982Z,45.60
2022-08-27T05:04:30.365Z,41.73
2022-08-27T05:06:34.258Z,48.03
2022-08-27T05:08:37.243Z,44.90
2022-08-27T05:10:42.103Z,46.00
2022-08-27T05:12:45.094Z,44.67
2022-08-27T05:14:48.120Z,40.90
2022-08-27T05:16:52.595Z,46.30
2022-08-27T05:18:55.817Z,44.13
2022-08-27T05:20:59.977Z,39.07
2022-08-27T05:23:02.987Z,44.70
2022-08-27T05:25:06.821Z,43.43
2022-08-27T05:27:09.917Z,43.00
2022-08-27T05:29:16.590Z,45.93
2022-08-27T05:31:21.046Z,45.70
2022-08-27T05:33:26.511Z,48.40
2022-08-27T05:35:29.625Z,43.80
2022-08-27T05:37:33.965Z,41.53
2022-08-27T05:39:36.947Z,42.33
2022-08-27T05:41:39.904Z,41.20
2022-08-27T05:43:49.178Z,41.83
2022-08-27T05:45:53.575Z,47.63
2022-08-27T05:47:56.556Z,43.20
2022-08-27T05:50:03.695Z,48.90
2022-08-27T05:52:10.831Z,44.83
2022-08-27T05:54:19.218Z,42.63
2022-08-27T05:56:24.395Z,40.20
2022-08-27T05:58:45.034Z,43.00
2022-08-27T06:01:10.073Z,41.40
2022-08-27T06:03:13.404Z,41.70
2022-08-27T06:05:18.054Z,46.67
2022-08-27T06:07:21.105Z,45.10
2022-08-27T06:09:28.873Z,49.83
2022-08-27T06:11:31.965Z,44.53
2022-08-27T06:13:36.325Z,46.40
2022-08-27T06:15:41.552Z,44.67
2022-08-27T06:17:44.620Z,47.30
2022-08-27T06:19:47.590Z,49.33
2022-08-27T06:22:01.246Z,47.60
2022-08-27T06:24:14.116Z,47.37
2022-08-27T06:26:18.945Z,50.83
2022-08-27T06:28:23.438Z,45.23
2022-08-27T06:30:26.583Z,44.03
2022-08-27T06:32:31.378Z,39.53
2022-08-27T06:34:34.826Z,47.13
2022-08-27T06:36:39.235Z,49.10
2022-08-27T06:38:43.709Z,49.03
2022-08-27T06:40:47.720Z,46.13
2022-08-27T06:42:51.403Z,51.77
2022-08-27T06:44:54.750Z,44.00
2022-08-27T06:46:57.783Z,48.27
2022-08-27T06:49:01.916Z,48.73
2022-08-27T06:51:09.016Z,51.53
2022-08-27T06:53:12.434Z,47.67
2022-08-27T06:55:17.017Z,48.27
2022-08-27T06:57:20.000Z,45.73
2022-08-27T06:59:23.061Z,46.53
2022-08-27T07:01:30.447Z,50.03
2022-08-27T07:03:33.741Z,49.43
2022-08-27T07:05:38.016Z,48.30
2022-08-27T07:07:46.735Z,48.57
2022-08-27T07:09:51.757Z,44.77
2022-08-27T07:11:57.315Z,50.03
2022-08-27T07:14:01.036Z,54.73
2022-08-27T07:16:06.038Z,47.10
2022-08-27T07:18:09.296Z,45.97
2022-08-27T07:20:15.756Z,50.53
2022-08-27T07:22:18.760Z,46.63
2022-08-27T07:24:21.766Z,47.90
2022-08-27T07:26:25.003Z,50.60
2022-08-27T07:28:29.753Z,47.90
2022-08-27T07:30:32.951Z,49.70
2022-08-27T07:32:36.020Z,50.53
2022-08-27T07:34:39.076Z,48.80
2022-08-27T07:36:42.160Z,48.37
2022-08-27T07:38:45.349Z,50.43
2022-08-27T07:40:58.547Z,48.27
2022-08-27T07:43:19.164Z,45.87
2022-08-27T07:45:23.805Z,50.70
2022-08-27T07:47:26.865Z,53.63
2022-08-27T07:49:31.451Z,49.87
2022-08-27T07:51:37.446Z,48.33
2022-08-27T07:53:40.466Z,52.93
2022-08-27T07:55:43.597Z,51.37
2022-08-27T07:57:48.022Z,55.20
2022-08-27T07:59:53.091Z,52.53
2022-08-27T08:01:58.095Z,52.30
2022-08-27T08:04:01.243Z,50.67
2022-08-27T08:06:05.939Z,48.63
2022-08-27T08:08:09.236Z,49.87
2022-08-27T08:10:12.761Z,54.13
2022-08-27T08:12:15.934Z,50.03
2022-08-27T08:14:22.297Z,52.40
2022-08-27T08:16:30.970Z,48.37
2022-08-27T08:18:38.219Z,51.47
2022-08-27T08:20:57.479Z,49.57
2022-08-27T08:23:01.755Z,45.83
2022-08-27T08:25:05.520Z,53.00
2022-08-27T08:27:08.697Z,48.93
2022-08-27T08:29:14.705Z,47.33
2022-08-27T08:31:23.918Z,47.10
2022-08-27T08:33:27.616Z,43.97
2022-08-27T08:35:33.217Z,52.70
2022-08-27T08:37:44.320Z,48.23
2022-08-27T08:39:47.340Z,50.00
2022-08-27T08:41:52.694Z,48.23
2022-08-27T08:43:57.261Z,46.33
2022-08-27T08:46:06.412Z,48.47
2022-08-27T08:48:13.090Z,44.03
2022-08-27T08:50:20.165Z,43.47
2022-08-27T08:52:32.052Z,39.80
2022-08-27T08:54:36.044Z,38.27
2022-08-27T08:56:44.560Z,36.87
2022-08-27T08:58:51.204Z,32.23
2022-08-27T09:00:57.983Z,35.17
2022-08-27T09:03:01.042Z,31.10
2022-08-27T09:05:06.078Z,34.90
2022-08-27T09:07:14.255Z,32.73
2022-08-27T09:09:22.752Z,29.87
2022-08-27T09:11:30.228Z,32.23
2022-08-27T09:13:38.107Z,28.30
2022-08-27T09:15:41.116Z,29.43
2022-08-27T09:17:45.410Z,31.97
2022-08-27T09:19:48.433Z,33.00
2022-08-27T09:22:00.124Z,27.87
2022-08-27T09:24:07.747Z,28.57
2022-08-27T09:26:23.982Z,27.50
2022-08-27T09:28:47.266Z,30.30
2022-08-27T09:30:50.345Z,26.50
2022-08-27T09:32:56.781Z,25.40
2022-08-27T09:35:01.532Z,28.40
2022-08-27T09:37:08.352Z,29.17
2022-08-27T09:39:11.430Z,26.00
2022-08-27T09:41:21.281Z,25.90
2022-08-27T09:43:28.257Z,26.60
2022-08-27T09:45:31.917Z,26.30
2022-08-27T09:47:43.112Z,27.87
2022-08-27T09:49:47.408Z,25.73
2022-08-27T09:51:50.670Z,25.90
2022-08-27T09:53:55.886Z,24.27
2022-08-27T09:56:00.532Z,25.93
2022-08-27T09:58:06.473Z,24.20
2022-08-27T10:00:15.749Z,23.83
2022-08-27T10:02:21.953Z,26.00
2022-08-27T10:04:28.032Z,24.20
2022-08-27T10:06:32.678Z,25.07
2022-08-27T10:08:39.742Z,24.40
2022-08-27T10:10:51.207Z,24.63
2022-08-27T10:12:57.174Z,24.67
2022-08-27T10:15:02.707Z,22.63
2022-08-27T10:17:12.758Z,22.57
2022-08-27T10:19:32.858Z,22.47
2022-08-27T10:21:42.922Z,23.37
2022-08-27T10:23:53.654Z,23.03
2022-08-27T10:26:03.673Z,23.60
2022-08-27T10:28:20.115Z,22.87
2022-08-27T10:30:32.783Z,22.17
2022-08-27T10:32:57.522Z,22.27
2022-08-27T10:35:09.307Z,22.10
2022-08-27T10:37:22.769Z,20.90
2022-08-27T10:39:40.106Z,20.70
2022-08-27T10:41:45.017Z,20.30
2022-08-27T10:44:11.551Z,19.70
2022-08-27T10:46:31.870Z,20.97
2022-08-27T10:48:38.455Z,20.73
2022-08-27T10:50:47.762Z,20.63
2022-08-27T10:52:53.995Z,20.57
2022-08-27T10:55:01.990Z,21.43
2022-08-27T10:57:35.354Z,21.17
2022-08-27T10:59:44.542Z,20.20
2022-08-27T11:01:53.431Z,21.30
2022-08-27T11:04:00.738Z,22.20
2022-08-27T11:06:06.486Z,18.47
2022-08-27T11:08:13.356Z,20.33
2022-08-27T11:10:21.046Z,19.60
2022-08-27T11:12:35.242Z,21.23
2022-08-27T11:14:43.747Z,20.87
2022-08-27T11:16:51.630Z,24.03
2022-08-27T11:18:58.391Z,19.53
2022-08-27T11:21:05.021Z,21.03
2022-08-27T11:23:10.410Z,21.17
2022-08-27T11:25:25.793Z,19.97
2022-08-27T11:27:32.044Z,19.77
2022-08-27T11:29:37.533Z,20.07
2022-08-27T11:31:44.048Z,20.63
2022-08-27T11:33:55.816Z,19.90
2022-08-27T11:36:36.932Z,21.03
2022-08-27T11:38:46.868Z,21.00
2022-08-27T11:41:00.912Z,20.93
2022-08-27T11:43:06.603Z,21.57
2022-08-27T11:45:17.983Z,21.40
2022-08-27T11:47:23.204Z,21.53
2022-08-27T11:49:30.000Z,21.53
2022-08-27T11:51:35.011Z,23.23
2022-08-27T11:53:42.782Z,21.70
2022-08-27T11:55:56.543Z,22.60
2022-08-27T11:58:30.616Z,24.17
2022-08-27T12:00:38.785Z,24.13
2022-08-27T12:02:42.076Z,24.07
2022-08-27T12:04:46.531Z,23.77
2022-08-27T12:06:53.771Z,27.23
2022-08-27T12:09:07.855Z,25.27
2022-08-27T12:11:19.429Z,24.67
2022-08-27T12:13:27.495Z,25.17
2022-08-27T12:15:51.673Z,23.80
2022-08-27T12:17:59.977Z,29.47
2022-08-27T12:20:12.920Z,25.63
2022-08-27T12:22:30.220Z,23.67
2022-08-27T12:24:42.390Z,26.80
2022-08-27T12:26:57.069Z,23.17
2022-08-27T12:29:24.117Z,21.77
2022-08-27T12:31:27.439Z,24.27
2022-08-27T12:33:34.412Z,22.20
2022-08-27T12:35:44.294Z,23.67
2022-08-27T12:37:51.595Z,24.80
2022-08-27T12:40:01.868Z,23.90
2022-08-27T12:42:13.572Z,22.00
2022-08-27T12:44:24.151Z,25.50
2022-08-27T12:46:29.798Z,24.83
2022-08-27T12:48:42.560Z,23.13
2022-08-27T12:50:52.596Z,26.43
2022-08-27T12:53:24.002Z,22.50
2022-08-27T12:55:36.694Z,24.40
2022-08-27T12:57:44.453Z,22.07
2022-08-27T12:59:58.764Z,23.83
2022-08-27T13:02:11.047Z,16.30
2022-08-27T13:04:21.956Z,11.03
2022-08-27T13:06:31.000Z,8.07
2022-08-27T13:08:35.747Z,9.07
2022-08-27T13:10:38.760Z,12.07
2022-08-27T13:12:41.994Z,14.20
2022-08-27T13:14:45.897Z,13.67
2022-08-27T13:17:01.272Z,12.87
2022-08-27T13:19:06.522Z,12.70
2022-08-27T13:21:16.085Z,12.27
2022-08-27T13:23:24.079Z,9.87
2022-08-27T13:25:30.765Z,11.00
2022-08-27T13:27:36.764Z,11.10
2022-08-27T13:29:40.468Z,9.57
2022-08-27T13:31:43.724Z,10.63
2022-08-27T13:33:47.163Z,9.83
2022-08-27T13:35:50.904Z,12.73
2022-08-27T13:37:57.518Z,8.43
2022-08-27T13:40:02.246Z,8.27
2022-08-27T13:42:07.627Z,8.00
2022-08-27T13:44:12.507Z,8.60
2022-08-27T13:46:17.917Z,9.10
2022-08-27T13:48:24.282Z,10.20
2022-08-27T13:50:29.877Z,10.83
2022-08-27T13:52:35.472Z,11.40
2022-08-27T13:54:37.548Z,12.13
2022-08-27T13:56:57.504Z,13.35
2022-08-27T13:59:10.189Z,12.80
2022-08-27T14:01:18.029Z,13.77
2022-08-27T14:03:26.651Z,13.07
2022-08-27T14:05:31.923Z,12.90
2022-08-27T14:07:36.745Z,12.67
2022-08-27T14:09:48.813Z,14.83
2022-08-27T14:12:05.340Z,14.77
2022-08-27T14:14:08.624Z,15.90
2022-08-27T14:16:17.707Z,16.73
2022-08-27T14:18:42.261Z,14.60
2022-08-27T14:20:47.286Z,13.23
2022-08-27T14:22:50.930Z,13.03
2022-08-27T14:24:53.958Z,14.47
2022-08-27T14:27:05.486Z,14.60
2022-08-27T14:29:12.195Z,13.60
2022-08-27T14:31:15.976Z,14.50
2022-08-27T14:33:19.304Z,14.73
2022-08-27T14:35:24.888Z,12.80
2022-08-27T14:37:28.744Z,13.93
2022-08-27T14:39:31.978Z,14.70
2022-08-27T14:41:35.465Z,15.27
2022-08-27T14:43:39.770Z,16.83
2022-08-27T14:45:44.520Z,16.37
2022-08-27T14:47:49.158Z,14.87
2022-08-27T14:49:52.184Z,15.97
2022-08-27T14:51:55.269Z,16.07
2022-08-27T14:53:58.910Z,15.93
2022-08-27T14:56:01.943Z,15.60
2022-08-27T14:58:05.040Z,15.67
2022-08-27T15:00:11.097Z,18.10
2022-08-27T15:02:14.961Z,19.17
2022-08-27T15:04:18.068Z,17.67
2022-08-27T15:06:22.357Z,17.23
2022-08-27T15:08:29.381Z,18.30
2022-08-27T15:10:35.091Z,17.17
2022-08-27T15:12:38.846Z,17.97
2022-08-27T15:14:43.267Z,19.17
2022-08-27T15:16:47.673Z,20.53
2022-08-27T15:18:53.776Z,20.47
2022-08-27T15:21:04.127Z,21.60
2022-08-27T15:23:07.143Z,19.40
2022-08-27T15:25:11.068Z,20.20
2022-08-27T15:27:14.421Z,20.80
2022-08-27T15:29:17.756Z,20.67
2022-08-27T15:31:21.307Z,21.63
2022-08-27T15:33:25.908Z,20.60
2022-08-27T15:35:28.956Z,20.70
2022-08-27T15:37:32.704Z,20.80
2022-08-27T15:39:35.704Z,21.13
2022-08-27T15:42:03.005Z,23.13
2022-08-27T15:44:03.856Z,24.37
2022-08-27T15:46:07.362Z,24.13
2022-08-27T15:48:11.343Z,23.97
2022-08-27T15:50:16.014Z,25.10
2022-08-27T15:52:21.429Z,24.87
2022-08-27T15:54:25.204Z,25.63
2022-08-27T15:56:32.523Z,27.83
2022-08-27T15:58:38.564Z,25.60
2022-08-27T16:00:43.199Z,26.70
2022-08-27T16:02:47.345Z,26.83
2022-08-27T16:04:51.152Z,28.77
2022-08-27T16:06:55.961Z,28.50
2022-08-27T16:08:59.003Z,32.60
2022-08-27T16:11:02.139Z,33.97
2022-08-27T16:13:05.651Z,28.73
2022-08-27T16:15:09.577Z,28.10
2022-08-27T16:17:13.459Z,28.17
2022-08-27T16:19:16.903Z,27.83
2022-08-27T16:21:20.001Z,30.20
2022-08-27T16:23:26.100Z,28.07
2022-08-27T16:25:29.457Z,27.10
2022-08-27T16:27:33.292Z,27.27
2022-08-27T16:29:36.638Z,28.60
2022-08-27T16:31:39.690Z,27.20
2022-08-27T16:33:43.685Z,28.60
2022-08-27T16:35:46.779Z,27.83
2022-08-27T16:37:49.978Z,26.07
2022-08-27T16:39:54.410Z,24.50
2022-08-27T16:41:57.446Z,24.67
2022-08-27T16:44:00.643Z,23.37
2022-08-27T16:46:03.725Z,24.13
2022-08-27T16:48:24.399Z,23.43
2022-08-27T16:50:36.800Z,22.70
2022-08-27T16:52:39.796Z,22.50
2022-08-27T16:54:43.022Z,26.23
2022-08-27T16:56:47.397Z,26.23
2022-08-27T16:58:51.543Z,24.70
2022-08-27T17:00:56.506Z,24.50
2022-08-27T17:02:59.543Z,25.67
2022-08-27T17:05:33.451Z,24.83
2022-08-27T17:07:25.827Z,25.13
2022-08-27T17:09:29.199Z,24.53
2022-08-27T17:11:32.846Z,24.17
2022-08-27T17:13:39.550Z,24.17
2022-08-27T17:15:42.868Z,23.53
2022-08-27T17:17:46.428Z,24.63
2022-08-27T17:19:49.430Z,23.00
2022-08-27T17:21:54.686Z,23.17
2022-08-27T17:23:59.415Z,23.60
2022-08-27T17:26:03.042Z,24.73
2022-08-27T17:28:06.343Z,23.33
2022-08-27T17:30:12.161Z,22.93
2022-08-27T17:32:15.199Z,23.73
2022-08-27T17:34:21.806Z,24.60
2022-08-27T17:36:24.959Z,25.00
2022-08-27T17:38:32.685Z,24.90
2022-08-27T17:40:35.848Z,23.93
2022-08-27T17:42:38.887Z,24.60
2022-08-27T17:44:41.914Z,23.87
2022-08-27T17:46:46.307Z,21.53
2022-08-27T17:48:49.282Z,25.63
2022-08-27T17:50:52.264Z,23.47
2022-08-27T17:52:55.460Z,22.77
2022-08-27T17:54:59.782Z,28.30
2022-08-27T17:57:04.999Z,24.00
2022-08-27T17:59:08.899Z,24.57
2022-08-27T18:01:12.023Z,23.30
2022-08-27T18:03:18.272Z,23.87
2022-08-27T18:05:23.779Z,24.70
2022-08-27T18:07:27.250Z,23.43
2022-08-27T18:09:30.300Z,23.57
2022-08-27T18:11:33.619Z,25.43
2022-08-27T18:13:37.245Z,23.30
2022-08-27T18:15:42.019Z,23.60
2022-08-27T18:17:45.125Z,22.93
2022-08-27T18:19:50.696Z,23.83
2022-08-27T18:21:54.373Z,23.33
2022-08-27T18:23:57.375Z,23.87
2022-08-27T18:26:00.418Z,25.40
2022-08-27T18:28:07.111Z,25.87
2022-08-27T18:30:11.857Z,28.50
2022-08-27T18:32:14.854Z,25.30
2022-08-27T18:34:20.927Z,23.60
2022-08-27T18:36:25.812Z,23.80
2022-08-27T18:38:28.790Z,24.10
2022-08-27T18:40:36.184Z,22.00
2022-08-27T18:42:40.999Z,22.43
2022-08-27T18:44:45.676Z,22.50
2022-08-27T18:46:48.698Z,22.67
2022-08-27T18:48:51.718Z,21.03
2022-08-27T18:50:58.474Z,22.60
2022-08-27T18:53:03.859Z,22.43
2022-08-27T18:55:09.066Z,21.77
2022-08-27T18:57:13.110Z,21.83
2022-08-27T18:59:16.209Z,21.40
2022-08-27T19:01:23.902Z,21.23
2022-08-27T19:03:29.379Z,21.73
2022-08-27T19:05:32.494Z,22.40
2022-08-27T19:07:36.087Z,21.80
2022-08-27T19:09:40.546Z,22.63
2022-08-27T19:11:43.682Z,22.47
2022-08-27T19:13:50.568Z,20.97
2022-08-27T19:15:56.821Z,21.30
2022-08-27T19:18:02.916Z,21.23
2022-08-27T19:20:07.238Z,20.40
2022-08-27T19:22:10.317Z,19.50
2022-08-27T19:24:13.294Z,20.80
2022-08-27T19:26:20.551Z,19.33
2022-08-27T19:28:26.200Z,19.83
2022-08-27T19:30:29.242Z,18.90
2022-08-27T19:32:34.688Z,20.57
2022-08-27T19:34:37.874Z,20.00
2022-08-27T19:36:42.649Z,22.03
2022-08-27T19:38:46.527Z,21.57
2022-08-27T19:40:49.710Z,21.57
2022-08-27T19:42:54.093Z,20.23
2022-08-27T19:44:57.256Z,20.07
2022-08-27T19:47:00.576Z,21.37
2022-08-27T19:49:03.922Z,25.60
2022-08-27T19:51:07.228Z,20.20
2022-08-27T19:53:10.339Z,22.90
2022-08-27T19:55:16.420Z,24.43
2022-08-27T19:57:19.696Z,25.93
2022-08-27T19:59:24.107Z,27.27
2022-08-27T20:01:27.369Z,27.67
2022-08-27T20:03:30.426Z,28.43
2022-08-27T20:05:33.486Z,30.70
2022-08-27T20:07:36.634Z,27.10
2022-08-27T20:09:40.669Z,28.20
2022-08-27T20:11:45.835Z,28.77
2022-08-27T20:13:50.817Z,33.37
2022-08-27T20:15:55.449Z,31.43
2022-08-27T20:18:00.011Z,31.30
2022-08-27T20:20:03.084Z,30.93
2022-08-27T20:22:06.825Z,30.50
2022-08-27T20:24:10.131Z,30.23
2022-08-27T20:26:13.125Z,30.50
2022-08-27T20:28:38.327Z,30.20
2022-08-27T20:30:40.089Z,27.17
2022-08-27T20:32:47.590Z,27.10
2022-08-27T20:34:51.466Z,26.70
2022-08-27T20:36:54.833Z,26.07
2022-08-27T20:38:58.077Z,23.83
2022-08-27T20:41:01.430Z,23.27
2022-08-27T20:43:04.511Z,22.40
2022-08-27T20:45:12.198Z,23.57
2022-08-27T20:47:17.151Z,22.17
2022-08-27T20:49:22.060Z,21.53
2022-08-27T20:51:25.681Z,20.47
2022-08-27T20:53:28.824Z,21.00
2022-08-27T20:55:31.885Z,21.13
2022-08-27T20:57:34.903Z,19.23
2022-08-27T20:59:57.942Z,20.77
2022-08-27T21:02:06.088Z,20.30
2022-08-27T21:04:09.208Z,20.93
2022-08-27T21:06:13.834Z,20.30
2022-08-27T21:08:19.266Z,20.63
2022-08-27T21:10:22.574Z,20.27
2022-08-27T21:12:26.418Z,20.50
2022-08-27T21:14:29.533Z,20.93
2022-08-27T21:16:33.187Z,20.77
2022-08-27T21:18:36.431Z,20.97
2022-08-27T21:20:39.691Z,21.90
2022-08-27T21:22:45.108Z,21.40
2022-08-27T21:24:48.454Z,21.97
2022-08-27T21:26:51.530Z,22.50
2022-08-27T21:28:55.588Z,23.13
2022-08-27T21:30:59.132Z,24.90
2022-08-27T21:33:02.268Z,22.13
2022-08-27T21:35:06.229Z,20.40
2022-08-27T21:37:11.078Z,21.73
2022-08-27T21:39:15.490Z,20.90
2022-08-27T21:41:18.659Z,22.13
2022-08-27T21:43:21.880Z,20.10
2022-08-27T21:45:25.030Z,22.87
2022-08-27T21:47:29.402Z,22.53
2022-08-27T21:49:33.247Z,22.07
2022-08-27T21:51:36.251Z,22.10
2022-08-27T21:53:39.285Z,22.63
2022-08-27T21:55:44.134Z,22.13
2022-08-27T21:57:47.263Z,21.83
2022-08-27T21:59:51.475Z,23.53
2022-08-27T22:02:00.480Z,21.70
2022-08-27T22:04:04.751Z,21.40
2022-08-27T22:06:12.255Z,21.87
2022-08-27T22:08:17.843Z,21.50
2022-08-27T22:10:21.316Z,20.20
2022-08-27T22:12:25.671Z,20.27
2022-08-27T22:14:29.072Z,21.50
2022-08-27T22:16:32.143Z,21.67
2022-08-27T22:18:35.211Z,21.70
2022-08-27T22:20:42.369Z,20.90
2022-08-27T22:22:45.532Z,23.33
2022-08-27T22:24:48.575Z,22.50
2022-08-27T22:26:51.629Z,22.27
2022-08-27T22:28:56.036Z,22.30
2022-08-27T22:30:59.388Z,24.50
2022-08-27T22:33:02.490Z,24.00
2022-08-27T22:35:06.197Z,25.97
2022-08-27T22:37:09.278Z,22.60
2022-08-27T22:39:12.353Z,22.97
2022-08-27T22:41:16.536Z,22.17
2022-08-27T22:43:21.707Z,21.60
2022-08-27T22:45:27.048Z,23.67
2022-08-27T22:47:30.076Z,24.97
2022-08-27T22:49:35.824Z,23.70
2022-08-27T22:51:38.895Z,21.67
2022-08-27T22:53:41.972Z,21.80
2022-08-27T22:55:49.952Z,19.93
2022-08-27T22:57:55.174Z,19.87
2022-08-27T22:59:58.531Z,18.87
2022-08-27T23:02:04.476Z,19.83
2022-08-27T23:04:07.840Z,20.10
2022-08-27T23:06:11.079Z,21.03
2022-08-27T23:08:15.140Z,20.13
2022-08-27T23:10:20.401Z,19.10
2022-08-27T23:12:26.046Z,18.93
2022-08-27T23:14:34.203Z,18.73
2022-08-27T23:16:37.240Z,21.17
2022-08-27T23:18:41.860Z,20.90
2022-08-27T23:20:45.195Z,20.00
2022-08-27T23:22:48.603Z,20.00
2022-08-27T23:25:10.680Z,19.00
2022-08-27T23:27:32.182Z,19.37
2022-08-27T23:29:35.844Z,19.40
2022-08-27T23:31:38.998Z,19.93
2022-08-27T23:33:43.593Z,19.73
2022-08-27T23:35:48.252Z,19.53
2022-08-27T23:37:51.615Z,18.80
2022-08-27T23:39:55.191Z,22.13
2022-08-27T23:41:58.176Z,22.33
2022-08-27T23:44:01.890Z,20.07
2022-08-27T23:46:05.184Z,19.40
2022-08-27T23:48:08.228Z,19.00
2022-08-27T23:50:13.007Z,19.07
2022-08-27T23:52:16.279Z,19.10
2022-08-27T23:54:19.295Z,20.00
2022-08-27T23:56:22.285Z,20.10
2022-08-27T23:58:33.823Z,20.23
